createdAt,value
2022-09-28T00:02:27.454Z,93260
2022-09-28T00:05:52.689Z,93246
2022-09-28T00:09:18.229Z,93239
2022-09-28T00:12:43.483Z,93240
2022-09-28T00:16:08.993Z,93239
2022-09-28T00:19:34.221Z,93230
2022-09-28T00:22:59.589Z,93215
2022-09-28T00:26:24.955Z,93209
2022-09-28T00:29:50.389Z,93210
2022-09-28T00:33:15.735Z,93201
2022-09-28T00:36:41.094Z,93196
2022-09-28T00:40:06.467Z,93186
2022-09-28T00:43:31.837Z,93193
2022-09-28T00:46:57.217Z,93187
2022-09-28T00:50:22.579Z,93187
2022-09-28T00:53:48.017Z,93182
2022-09-28T00:57:13.387Z,93170
2022-09-28T01:00:38.840Z,93161
2022-09-28T01:04:04.200Z,93158
2022-09-28T01:07:29.564Z,93156
2022-09-28T01:10:54.952Z,93146
2022-09-28T01:14:20.290Z,93147
2022-09-28T01:17:45.655Z,93139
2022-09-28T01:21:11.060Z,93138
2022-09-28T01:24:36.411Z,93137
2022-09-28T01:28:01.813Z,93132
2022-09-28T01:31:27.308Z,93127
2022-09-28T01:34:52.555Z,93122
2022-09-28T01:38:17.971Z,93130
2022-09-28T01:41:43.291Z,93118
2022-09-28T01:45:08.688Z,93123
2022-09-28T01:48:34.062Z,93120
2022-09-28T01:51:59.456Z,93121
2022-09-28T01:55:24.855Z,93107
2022-09-28T01:58:50.178Z,93095
2022-09-28T02:02:15.694Z,93110
2022-09-28T02:05:40.966Z,93103
2022-09-28T02:09:06.379Z,93104
2022-09-28T02:12:31.757Z,93105
2022-09-28T02:15:57.162Z,93097
2022-09-28T02:19:22.465Z,93095
2022-09-28T02:22:47.835Z,93073
2022-09-28T02:26:13.229Z,93063
2022-09-28T02:29:38.668Z,93064
2022-09-28T02:33:03.993Z,93070
2022-09-28T02:36:29.379Z,93057
2022-09-28T02:39:54.796Z,93069
2022-09-28T02:43:20.148Z,93071
2022-09-28T02:46:45.567Z,93065
2022-09-28T02:50:10.942Z,93063
2022-09-28T02:53:36.296Z,93071
2022-09-28T02:57:01.650Z,93053
2022-09-28T03:00:27.040Z,93041
2022-09-28T03:03:52.485Z,93037
2022-09-28T03:07:17.844Z,93032
2022-09-28T03:10:43.249Z,93033
2022-09-28T03:14:08.600Z,93020
2022-09-28T03:17:34.010Z,93022
2022-09-28T03:20:59.384Z,93024
2022-09-28T03:24:24.696Z,93015
2022-09-28T03:27:50.061Z,93016
2022-09-28T03:31:15.449Z,93007
2022-09-28T03:34:40.786Z,93013
2022-09-28T03:38:06.183Z,93006
2022-09-28T03:41:31.524Z,93001
2022-09-28T03:44:56.925Z,92999
2022-09-28T03:48:25.071Z,93000
2022-09-28T03:51:47.712Z,92983
2022-09-28T03:55:13.137Z,92973
2022-09-28T03:58:38.522Z,92973
2022-09-28T04:02:03.904Z,92966
2022-09-28T04:05:29.224Z,92960
2022-09-28T04:08:54.632Z,92950
2022-09-28T04:12:20.051Z,92945
2022-09-28T04:15:45.401Z,92940
2022-09-28T04:19:10.832Z,92930
2022-09-28T04:22:36.143Z,92926
2022-09-28T04:26:01.528Z,92920
2022-09-28T04:29:26.957Z,92908
2022-09-28T04:32:52.352Z,92908
2022-09-28T04:36:17.800Z,92909
2022-09-28T04:39:47.545Z,92907
2022-09-28T04:43:08.572Z,92904
2022-09-28T04:46:33.961Z,92908
2022-09-28T04:49:59.341Z,92896
2022-09-28T04:53:24.722Z,92895
2022-09-28T04:56:50.111Z,92890
2022-09-28T05:00:15.486Z,92884
2022-09-28T05:03:40.894Z,92877
2022-09-28T05:07:06.234Z,92871
2022-09-28T05:10:31.665Z,92883
2022-09-28T05:13:57.061Z,92872
2022-09-28T05:17:22.476Z,92856
2022-09-28T05:20:47.863Z,92857
2022-09-28T05:24:13.271Z,92852
2022-09-28T05:27:38.684Z,92849
2022-09-28T05:31:04.092Z,92849
2022-09-28T05:34:29.488Z,92849
2022-09-28T05:37:54.882Z,92847
2022-09-28T05:41:20.288Z,92841
2022-09-28T05:44:45.642Z,92843
2022-09-28T05:48:11.055Z,92828
2022-09-28T05:51:36.435Z,92834
2022-09-28T05:55:01.808Z,92831
2022-09-28T05:58:27.264Z,92835
2022-09-28T06:01:52.634Z,92825
2022-09-28T06:05:18.008Z,92817
2022-09-28T06:08:43.400Z,92812
2022-09-28T06:12:08.758Z,92810
2022-09-28T06:15:34.138Z,92817
2022-09-28T06:18:59.507Z,92810
2022-09-28T06:22:24.861Z,92803
2022-09-28T06:25:50.275Z,92807
2022-09-28T06:29:19.271Z,92801
2022-09-28T06:32:41.004Z,92798
2022-09-28T06:36:06.392Z,92791
2022-09-28T06:39:31.824Z,92794
2022-09-28T06:42:57.161Z,92794
2022-09-28T06:46:22.580Z,92790
2022-09-28T06:49:47.876Z,92790
2022-09-28T06:53:13.269Z,92783
2022-09-28T06:56:38.632Z,92792
2022-09-28T07:00:04.034Z,92793
2022-09-28T07:03:29.435Z,92792
2022-09-28T07:06:54.806Z,92798
2022-09-28T07:10:20.164Z,92793
2022-09-28T07:13:50.666Z,92794
2022-09-28T07:17:13.942Z,92788
2022-09-28T07:20:44.403Z,92791
2022-09-28T07:24:01.688Z,92796
2022-09-28T07:27:28.987Z,92800
2022-09-28T07:30:52.534Z,92802
2022-09-28T07:34:17.872Z,92800
2022-09-28T07:37:43.239Z,92807
2022-09-28T07:41:08.694Z,92806
2022-09-28T07:44:33.986Z,92811
2022-09-28T07:47:59.429Z,92818
2022-09-28T07:51:24.756Z,92817
2022-09-28T07:54:50.152Z,92828
2022-09-28T07:58:15.504Z,92832
2022-09-28T08:01:40.900Z,92838
2022-09-28T08:05:06.257Z,92834
2022-09-28T08:08:31.645Z,92836
2022-09-28T08:11:57.109Z,92841
2022-09-28T08:15:22.444Z,92847
2022-09-28T08:18:47.871Z,92848
2022-09-28T08:22:13.233Z,92852
2022-09-28T08:25:38.662Z,92860
2022-09-28T08:29:04.053Z,92865
2022-09-28T08:32:29.444Z,92864
2022-09-28T08:35:54.828Z,92875
2022-09-28T08:39:20.208Z,92881
2022-09-28T08:42:45.660Z,92885
2022-09-28T08:46:11.221Z,92884
2022-09-28T08:49:36.728Z,92887
2022-09-28T08:53:01.796Z,92898
2022-09-28T08:56:27.224Z,92899
2022-09-28T08:59:52.707Z,92901
2022-09-28T09:03:18.118Z,92909
2022-09-28T09:06:43.468Z,92916
2022-09-28T09:10:08.917Z,92904
2022-09-28T09:13:34.269Z,92910
2022-09-28T09:17:00.236Z,92915
2022-09-28T09:20:25.038Z,92920
2022-09-28T09:23:50.403Z,92926
2022-09-28T09:27:15.825Z,92932
2022-09-28T09:30:41.330Z,92939
2022-09-28T09:34:06.615Z,92949
2022-09-28T09:37:32.139Z,92949
2022-09-28T09:40:57.631Z,92954
2022-09-28T09:44:22.864Z,92951
2022-09-28T09:47:48.293Z,92953
2022-09-28T09:51:13.682Z,92961
2022-09-28T09:54:39.123Z,92970
2022-09-28T09:58:04.495Z,92971
2022-09-28T10:01:29.962Z,92975
2022-09-28T10:04:55.267Z,92972
2022-09-28T10:08:20.645Z,92981
2022-09-28T10:11:46.083Z,92981
2022-09-28T10:15:11.454Z,92987
2022-09-28T10:18:52.385Z,92984
2022-09-28T10:22:17.737Z,92991
2022-09-28T10:25:43.135Z,92997
2022-09-28T10:29:08.499Z,93000
2022-09-28T10:32:33.889Z,93005
2022-09-28T10:35:59.266Z,93005
2022-09-28T10:39:24.669Z,93008
2022-09-28T10:42:50.045Z,93003
2022-09-28T10:46:15.548Z,93006
2022-09-28T10:49:44.495Z,93006
2022-09-28T10:53:06.214Z,93011
2022-09-28T10:56:31.613Z,93016
2022-09-28T10:59:57.003Z,93022
2022-09-28T11:03:22.469Z,93020
2022-09-28T11:06:47.824Z,93011
2022-09-28T11:10:13.212Z,93026
2022-09-28T11:13:38.567Z,93023
2022-09-28T11:17:03.995Z,93025
2022-09-28T11:20:29.337Z,93023
2022-09-28T11:23:54.683Z,93029
2022-09-28T11:27:20.060Z,93033
2022-09-28T11:30:45.518Z,93039
2022-09-28T11:34:10.881Z,93039
2022-09-28T11:37:36.284Z,93040
2022-09-28T11:41:01.694Z,93051
2022-09-28T11:44:29.405Z,93050
2022-09-28T11:47:52.356Z,93049
2022-09-28T11:51:17.773Z,93056
2022-09-28T11:54:43.191Z,93060
2022-09-28T11:58:08.581Z,93066
2022-09-28T12:01:34.008Z,93074
2022-09-28T12:04:59.387Z,93075
2022-09-28T12:08:24.762Z,93072
2022-09-28T12:11:50.195Z,93066
2022-09-28T12:15:15.536Z,93070
2022-09-28T12:18:40.941Z,93070
2022-09-28T12:22:06.308Z,93071
2022-09-28T12:25:31.681Z,93067
2022-09-28T12:28:57.108Z,93064
2022-09-28T12:32:22.489Z,93068
2022-09-28T12:35:47.844Z,93073
2022-09-28T12:39:41.181Z,93066
2022-09-28T12:42:38.722Z,93072
2022-09-28T12:46:11.824Z,93078
2022-09-28T12:52:56.964Z,93071
2022-09-28T12:56:21.580Z,93076
2022-09-28T12:59:46.374Z,93076
2022-09-28T13:03:11.872Z,93087
2022-09-28T13:06:37.363Z,93091
2022-09-28T13:10:02.818Z,93093
2022-09-28T13:13:28.310Z,93088
2022-09-28T13:16:57.221Z,93096
2022-09-28T13:20:19.259Z,93097
2022-09-28T13:23:44.766Z,93090
2022-09-28T13:27:10.260Z,93087
2022-09-28T13:30:35.842Z,93096
2022-09-28T13:34:01.146Z,93100
2022-09-28T13:37:26.692Z,93103
2022-09-28T13:40:52.207Z,93103
2022-09-28T13:44:17.721Z,93098
2022-09-28T13:47:43.136Z,93104
2022-09-28T13:51:08.701Z,93110
2022-09-28T13:54:37.099Z,93110
2022-09-28T13:57:59.751Z,93111
2022-09-28T14:01:25.344Z,93110
2022-09-28T14:04:50.845Z,93102
2022-09-28T14:08:16.391Z,93106
2022-09-28T14:11:48.532Z,93109
2022-09-28T14:15:15.417Z,93109
2022-09-28T14:18:40.927Z,93113
2022-09-28T14:22:30.182Z,93121
2022-09-28T14:25:58.129Z,93129
2022-09-28T14:29:23.684Z,93129
2022-09-28T15:06:07.535Z,93146
2022-09-28T15:09:32.852Z,93142
2022-09-28T15:12:58.160Z,93146
2022-09-28T15:16:23.528Z,93154
2022-09-28T15:19:48.872Z,93158
2022-09-28T15:23:14.240Z,93157
2022-09-28T15:26:39.532Z,93163
2022-09-28T15:30:04.837Z,93165
2022-09-28T15:33:30.667Z,93170
2022-09-28T15:36:55.948Z,93175
2022-09-28T15:40:21.397Z,93181
2022-09-28T15:43:46.657Z,93186
2022-09-28T15:47:12.100Z,93190
2022-09-28T15:50:37.456Z,93192
2022-09-28T15:54:02.795Z,93200
2022-09-28T15:57:28.232Z,93204
2022-09-28T16:00:53.540Z,93205
2022-09-28T16:04:18.990Z,93205
2022-09-28T16:07:44.229Z,93200
2022-09-28T16:11:09.626Z,93206
2022-09-28T16:14:35.577Z,93207
2022-09-28T16:18:00.981Z,93211
2022-09-28T16:21:26.604Z,93207
2022-09-28T16:24:52.002Z,93215
2022-09-28T16:28:17.428Z,93221
2022-09-28T16:31:42.846Z,93223
2022-09-28T16:35:08.251Z,93227
2022-09-28T16:38:33.750Z,93224
2022-09-28T16:41:59.139Z,93238
2022-09-28T16:45:24.557Z,93246
2022-09-28T16:48:49.971Z,93248
2022-09-28T16:52:15.388Z,93254
2022-09-28T16:55:41.578Z,93257
2022-09-28T16:59:08.464Z,93257
2022-09-28T17:02:46.069Z,93263
2022-09-28T17:05:57.902Z,93261
2022-09-28T17:09:23.445Z,93266
2022-09-28T17:12:48.807Z,93261
2022-09-28T17:16:14.392Z,93267
2022-09-28T17:19:39.779Z,93262
2022-09-28T17:23:05.325Z,93271
2022-09-28T17:26:30.781Z,93269
2022-09-28T17:29:56.261Z,93276
2022-09-28T17:33:22.012Z,93279
2022-09-28T17:36:47.387Z,93276
2022-09-28T17:40:13.005Z,93277
2022-09-28T17:43:38.293Z,93283
2022-09-28T17:47:03.719Z,93280
2022-09-28T17:50:29.220Z,93284
2022-09-28T17:53:54.689Z,93289
2022-09-28T17:57:20.146Z,93285
2022-09-28T18:00:45.603Z,93293
2022-09-28T18:04:15.845Z,93298
2022-09-28T18:07:36.603Z,93298
2022-09-28T18:11:02.086Z,93298
2022-09-28T18:14:27.562Z,93296
2022-09-28T18:17:53.022Z,93294
2022-09-28T18:21:18.459Z,93297
2022-09-28T18:24:43.952Z,93308
2022-09-28T18:28:09.393Z,93313
2022-09-28T18:31:34.902Z,93315
2022-09-28T18:35:00.347Z,93318
2022-09-28T18:38:25.760Z,93322
2022-09-28T18:41:51.201Z,93326
2022-09-28T18:45:16.662Z,93328
2022-09-28T18:48:42.139Z,93328
2022-09-28T18:52:07.576Z,93332
2022-09-28T18:55:33.050Z,93330
2022-09-28T18:58:58.470Z,93337
2022-09-28T19:02:23.999Z,93339
2022-09-28T19:05:49.443Z,93336
2022-09-28T19:09:14.950Z,93336
2022-09-28T19:12:40.345Z,93344
2022-09-28T19:16:05.882Z,93340
2022-09-28T19:19:31.261Z,93345
2022-09-28T19:22:56.746Z,93345
2022-09-28T19:26:22.206Z,93350
2022-09-28T19:29:47.640Z,93347
2022-09-28T19:33:13.102Z,93358
2022-09-28T19:36:38.583Z,93355
2022-09-28T19:40:04.072Z,93359
2022-09-28T19:43:29.491Z,93359
2022-09-28T19:46:54.946Z,93361
2022-09-28T19:50:20.406Z,93356
2022-09-28T19:53:45.842Z,93365
2022-09-28T19:57:11.317Z,93372
2022-09-28T20:00:36.772Z,93376
2022-09-28T20:04:02.195Z,93385
2022-09-28T20:07:27.649Z,93388
2022-09-28T20:10:53.119Z,93385
2022-09-28T20:14:18.625Z,93390
2022-09-28T20:17:44.041Z,93394
2022-09-28T20:21:09.505Z,93392
2022-09-28T20:24:34.967Z,93393
2022-09-28T20:28:00.380Z,93401
2022-09-28T20:31:25.947Z,93394
2022-09-28T20:34:51.302Z,93403
2022-09-28T20:38:16.786Z,93401
2022-09-28T20:41:42.245Z,93397
2022-09-28T20:45:07.780Z,93401
2022-09-28T20:48:33.225Z,93410
2022-09-28T20:51:58.728Z,93414
2022-09-28T20:55:24.194Z,93418
2022-09-28T20:58:49.649Z,93422
2022-09-28T21:02:15.105Z,93421
2022-09-28T21:05:40.695Z,93418
2022-09-28T21:09:06.015Z,93423
2022-09-28T21:12:31.481Z,93427
2022-09-28T21:15:56.925Z,93426
2022-09-28T21:19:22.413Z,93431
2022-09-28T21:22:47.893Z,93430
2022-09-28T21:26:13.316Z,93427
2022-09-28T21:29:38.839Z,93433
2022-09-28T21:33:04.256Z,93428
2022-09-28T21:36:29.745Z,93432
2022-09-28T21:39:55.190Z,93440
2022-09-28T21:43:20.608Z,93437
2022-09-28T21:46:46.187Z,93443
2022-09-28T21:50:11.619Z,93441
2022-09-28T21:53:37.068Z,93442
2022-09-28T21:57:02.537Z,93443
2022-09-28T22:00:28.003Z,93439
2022-09-28T22:03:53.426Z,93440
2022-09-28T22:07:18.838Z,93440
2022-09-28T22:10:44.288Z,93439
2022-09-28T22:14:09.735Z,93444
2022-09-28T22:17:35.157Z,93444
2022-09-28T22:21:00.610Z,93441
2022-09-28T22:24:26.150Z,93435
2022-09-28T22:27:51.623Z,93435
2022-09-28T22:31:17.186Z,93428
2022-09-28T22:34:42.600Z,93433
2022-09-28T22:38:08.112Z,93424
2022-09-28T22:41:33.535Z,93424
2022-09-28T22:44:59.015Z,93429
2022-09-28T22:48:24.593Z,93431
2022-09-28T22:51:50.001Z,93432
2022-09-28T22:55:15.407Z,93432
2022-09-28T22:58:40.870Z,93434
2022-09-28T23:02:06.410Z,93439
2022-09-28T23:05:31.837Z,93440
2022-09-28T23:08:57.258Z,93442
2022-09-28T23:12:22.716Z,93443
2022-09-28T23:15:48.186Z,93436
2022-09-28T23:19:13.601Z,93441
2022-09-28T23:22:39.065Z,93438
2022-09-28T23:26:04.469Z,93441
2022-09-28T23:29:29.949Z,93435
2022-09-28T23:32:55.382Z,93430
2022-09-28T23:36:20.848Z,93433
2022-09-28T23:39:46.307Z,93433
2022-09-28T23:43:11.734Z,93431
2022-09-28T23:46:37.177Z,93434
2022-09-28T23:50:02.594Z,93432
2022-09-28T23:53:28.076Z,93432
2022-09-28T23:56:53.559Z,93441
